createdAt,value
2023-05-10T00:00:05.993Z,94490.00
2023-05-10T00:01:06.031Z,94488.00
2023-05-10T00:02:06.070Z,94492.00
2023-05-10T00:03:06.168Z,94492.00
2023-05-10T00:04:06.090Z,94490.00
2023-05-10T00:05:06.080Z,94490.00
2023-05-10T00:06:06.065Z,94492.00
2023-05-10T00:07:06.068Z,94492.00
2023-05-10T00:08:06.070Z,94492.00
2023-05-10T00:09:06.104Z,94490.00
2023-05-10T00:10:06.112Z,94490.00
2023-05-10T00:11:06.099Z,94490.00
2023-05-10T00:12:06.137Z,94492.00
2023-05-10T00:13:06.161Z,94490.00
2023-05-10T00:14:06.135Z,94490.00
2023-05-10T00:15:06.167Z,94488.00
2023-05-10T00:16:06.176Z,94488.00
2023-05-10T00:17:06.181Z,94488.00
2023-05-10T00:18:06.245Z,94488.00
2023-05-10T00:19:06.240Z,94486.00
2023-05-10T00:20:06.212Z,94486.00
2023-05-10T00:21:06.248Z,94488.00
2023-05-10T00:22:06.277Z,94488.00
2023-05-10T00:23:06.258Z,94492.00
2023-05-10T00:24:06.282Z,94492.00
2023-05-10T00:25:06.305Z,94492.00
2023-05-10T00:26:06.304Z,94490.00
2023-05-10T00:27:06.361Z,94492.00
2023-05-10T00:28:06.366Z,94494.00
2023-05-10T00:29:06.361Z,94492.00
2023-05-10T00:30:06.374Z,94492.00
2023-05-10T00:31:06.397Z,94494.00
2023-05-10T00:32:06.430Z,94494.00
2023-05-10T00:33:06.452Z,94494.00
2023-05-10T00:34:06.425Z,94492.00
2023-05-10T00:35:06.470Z,94492.00
2023-05-10T00:36:06.490Z,94498.00
2023-05-10T00:37:06.481Z,94498.00
2023-05-10T00:38:06.523Z,94498.00
2023-05-10T00:39:06.540Z,94498.00
2023-05-10T00:40:06.548Z,94502.00
2023-05-10T00:41:06.587Z,94502.00
2023-05-10T00:42:06.557Z,94502.00
2023-05-10T00:43:06.594Z,94502.00
2023-05-10T00:44:06.587Z,94500.00
2023-05-10T00:45:06.604Z,94500.00
2023-05-10T00:46:06.693Z,94502.00
2023-05-10T00:47:06.645Z,94500.00
2023-05-10T00:48:06.751Z,94500.00
2023-05-10T00:49:06.688Z,94500.00
2023-05-10T00:50:06.705Z,94502.00
2023-05-10T00:51:06.710Z,94502.00
2023-05-10T00:52:06.752Z,94500.00
2023-05-10T00:53:06.784Z,94500.00
2023-05-10T00:54:06.832Z,94502.00
2023-05-10T00:55:06.800Z,94503.00
2023-05-10T00:56:06.869Z,94505.00
2023-05-10T00:57:06.867Z,94505.00
2023-05-10T00:58:06.900Z,94503.00
2023-05-10T00:59:06.945Z,94503.00
2023-05-10T01:00:06.982Z,94505.00
2023-05-10T01:01:07.020Z,94505.00
2023-05-10T01:02:07.011Z,94505.00
2023-05-10T01:03:07.129Z,94505.00
2023-05-10T01:04:07.044Z,94503.00
2023-05-10T01:05:07.119Z,94503.00
2023-05-10T01:06:07.125Z,94503.00
2023-05-10T01:07:07.158Z,94502.00
2023-05-10T01:08:07.158Z,94502.00
2023-05-10T01:09:07.153Z,94500.00
2023-05-10T01:10:07.214Z,94503.00
2023-05-10T01:11:07.238Z,94503.00
2023-05-10T01:12:07.304Z,94503.00
2023-05-10T01:13:07.294Z,94502.00
2023-05-10T01:14:07.351Z,94502.00
2023-05-10T01:15:07.361Z,94503.00
2023-05-10T01:16:07.503Z,94503.00
2023-05-10T01:17:07.399Z,94503.00
2023-05-10T01:18:07.439Z,94503.00
2023-05-10T01:19:07.469Z,94503.00
2023-05-10T01:20:07.476Z,94503.00
2023-05-10T01:21:07.538Z,94502.00
2023-05-10T01:22:07.564Z,94500.00
2023-05-10T01:23:07.587Z,94503.00
2023-05-10T01:24:07.621Z,94500.00
2023-05-10T01:25:07.640Z,94502.00
2023-05-10T01:26:07.663Z,94500.00
2023-05-10T01:27:07.672Z,94500.00
2023-05-10T01:28:07.693Z,94500.00
2023-05-10T01:29:07.760Z,94500.00
2023-05-10T01:30:15.650Z,94502.00
2023-05-10T01:31:08.818Z,94496.00
2023-05-10T01:32:07.760Z,94500.00
2023-05-10T01:33:07.780Z,94498.00
2023-05-10T01:34:07.721Z,94500.00
2023-05-10T01:35:07.752Z,94500.00
2023-05-10T01:36:07.738Z,94502.00
2023-05-10T01:37:07.710Z,94500.00
2023-05-10T01:38:07.720Z,94500.00
2023-05-10T01:39:07.709Z,94498.00
2023-05-10T01:40:07.677Z,94500.00
2023-05-10T01:41:07.661Z,94500.00
2023-05-10T01:42:07.645Z,94500.00
2023-05-10T01:43:07.688Z,94498.00
2023-05-10T01:44:07.666Z,94498.00
2023-05-10T01:45:07.632Z,94498.00
2023-05-10T01:46:07.610Z,94498.00
2023-05-10T01:47:07.648Z,94498.00
2023-05-10T01:48:07.793Z,94500.00
2023-05-10T01:49:07.666Z,94500.00
2023-05-10T01:50:07.943Z,94500.00
2023-05-10T01:51:07.727Z,94502.00
2023-05-10T01:52:07.735Z,94502.00
2023-05-10T01:53:07.791Z,94503.00
2023-05-10T01:54:07.805Z,94505.00
2023-05-10T01:55:07.830Z,94503.00
2023-05-10T01:56:07.899Z,94505.00
2023-05-10T01:57:07.900Z,94507.00
2023-05-10T01:58:07.934Z,94507.00
2023-05-10T01:59:07.973Z,94509.00
2023-05-10T02:00:07.999Z,94509.00
2023-05-10T02:01:08.084Z,94511.00
2023-05-10T02:02:08.085Z,94513.00
2023-05-10T02:03:08.218Z,94513.00
2023-05-10T02:04:08.130Z,94513.00
2023-05-10T02:05:08.162Z,94517.00
2023-05-10T02:06:08.183Z,94519.00
2023-05-10T02:07:08.192Z,94519.00
2023-05-10T02:08:09.140Z,94519.00
2023-05-10T02:09:08.267Z,94519.00
2023-05-10T02:10:08.301Z,94521.00
2023-05-10T02:11:08.317Z,94523.00
2023-05-10T02:12:08.360Z,94523.00
2023-05-10T02:13:08.477Z,94523.00
2023-05-10T02:14:08.454Z,94523.00
2023-05-10T02:15:08.454Z,94525.00
2023-05-10T02:16:08.526Z,94523.00
2023-05-10T02:17:08.513Z,94527.00
2023-05-10T02:18:08.564Z,94527.00
2023-05-10T02:19:08.610Z,94527.00
2023-05-10T02:20:08.599Z,94527.00
2023-05-10T02:21:08.629Z,94525.00
2023-05-10T02:22:08.657Z,94527.00
2023-05-10T02:23:08.739Z,94531.00
2023-05-10T02:24:08.741Z,94531.00
2023-05-10T02:25:08.752Z,94531.00
2023-05-10T02:26:08.847Z,94533.00
2023-05-10T02:27:08.801Z,94533.00
2023-05-10T02:28:08.901Z,94533.00
2023-05-10T02:29:08.910Z,94533.00
2023-05-10T02:30:08.882Z,94535.00
2023-05-10T02:31:08.951Z,94535.00
2023-05-10T02:32:09.064Z,94533.00
2023-05-10T02:33:09.032Z,94533.00
2023-05-10T02:34:09.014Z,94535.00
2023-05-10T02:35:09.070Z,94535.00
2023-05-10T02:36:09.069Z,94535.00
2023-05-10T02:37:09.117Z,94537.00
2023-05-10T02:38:09.161Z,94533.00
2023-05-10T02:39:09.180Z,94537.00
2023-05-10T02:40:09.191Z,94537.00
2023-05-10T02:41:09.238Z,94535.00
2023-05-10T02:42:09.280Z,94537.00
2023-05-10T02:43:09.297Z,94537.00
2023-05-10T02:44:09.344Z,94537.00
2023-05-10T02:45:09.356Z,94537.00
2023-05-10T02:46:09.458Z,94537.00
2023-05-10T02:47:09.415Z,94541.00
2023-05-10T02:48:09.544Z,94537.00
2023-05-10T02:49:10.168Z,94541.00
2023-05-10T02:50:09.484Z,94543.00
2023-05-10T02:51:09.504Z,94541.00
2023-05-10T02:52:09.550Z,94541.00
2023-05-10T02:53:09.568Z,94539.00
2023-05-10T02:54:09.565Z,94539.00
2023-05-10T02:55:09.602Z,94539.00
2023-05-10T02:56:09.677Z,94539.00
2023-05-10T02:57:09.667Z,94539.00
2023-05-10T02:58:09.720Z,94537.00
2023-05-10T02:59:09.731Z,94539.00
2023-05-10T03:00:09.766Z,94539.00
2023-05-10T03:01:09.787Z,94539.00
2023-05-10T03:02:09.815Z,94541.00
2023-05-10T03:03:09.963Z,94541.00
2023-05-10T03:04:09.889Z,94543.00
2023-05-10T03:05:09.927Z,94541.00
2023-05-10T03:06:09.955Z,94543.00
2023-05-10T03:07:10.304Z,94541.00
2023-05-10T03:08:10.022Z,94543.00
2023-05-10T03:09:10.033Z,94541.00
2023-05-10T03:10:10.078Z,94541.00
2023-05-10T03:11:10.108Z,94541.00
2023-05-10T03:12:10.156Z,94539.00
2023-05-10T03:13:10.211Z,94539.00
2023-05-10T03:14:10.193Z,94539.00
2023-05-10T03:15:10.209Z,94535.00
2023-05-10T03:16:10.401Z,94541.00
2023-05-10T03:17:10.320Z,94537.00
2023-05-10T03:18:10.374Z,94541.00
2023-05-10T03:19:10.352Z,94539.00
2023-05-10T03:20:10.412Z,94539.00
2023-05-10T03:21:10.449Z,94541.00
2023-05-10T03:22:10.498Z,94541.00
2023-05-10T03:23:10.520Z,94541.00
2023-05-10T03:24:10.527Z,94545.00
2023-05-10T03:25:10.609Z,94543.00
2023-05-10T03:26:10.608Z,94545.00
2023-05-10T03:27:10.668Z,94547.00
2023-05-10T03:28:10.665Z,94547.00
2023-05-10T03:29:10.700Z,94547.00
2023-05-10T03:30:10.732Z,94549.00
2023-05-10T03:31:10.853Z,94550.00
2023-05-10T03:32:10.795Z,94550.00
2023-05-10T03:33:10.827Z,94550.00
2023-05-10T03:34:10.877Z,94554.00
2023-05-10T03:35:10.977Z,94554.00
2023-05-10T03:36:10.936Z,94556.00
2023-05-10T03:37:10.989Z,94558.00
2023-05-10T03:38:11.025Z,94560.00
2023-05-10T03:39:11.064Z,94558.00
2023-05-10T03:40:11.073Z,94558.00
2023-05-10T03:41:12.069Z,94560.00
2023-05-10T03:42:11.160Z,94560.00
2023-05-10T03:43:11.199Z,94562.00
2023-05-10T03:44:11.168Z,94562.00
2023-05-10T03:45:11.206Z,94564.00
2023-05-10T03:46:11.278Z,94564.00
2023-05-10T03:47:11.265Z,94564.00
2023-05-10T03:48:11.328Z,94564.00
2023-05-10T03:49:11.335Z,94566.00
2023-05-10T03:50:11.386Z,94568.00
2023-05-10T03:51:11.451Z,94568.00
2023-05-10T03:52:11.437Z,94566.00
2023-05-10T03:53:11.472Z,94568.00
2023-05-10T03:54:11.483Z,94570.00
2023-05-10T03:55:11.523Z,94572.00
2023-05-10T03:56:11.530Z,94574.00
2023-05-10T03:57:11.565Z,94570.00
2023-05-10T03:58:11.647Z,94574.00
2023-05-10T03:59:11.656Z,94574.00
2023-05-10T04:00:11.700Z,94572.00
2023-05-10T04:01:11.712Z,94572.00
2023-05-10T04:02:11.735Z,94572.00
2023-05-10T04:03:11.842Z,94572.00
2023-05-10T04:04:11.825Z,94576.00
2023-05-10T04:05:11.788Z,94574.00
2023-05-10T04:06:11.843Z,94574.00
2023-05-10T04:07:11.855Z,94572.00
2023-05-10T04:08:11.921Z,94570.00
2023-05-10T04:09:11.877Z,94568.00
2023-05-10T04:10:11.959Z,94572.00
2023-05-10T04:11:12.030Z,94574.00
2023-05-10T04:12:12.005Z,94574.00
2023-05-10T04:13:12.027Z,94576.00
2023-05-10T04:14:12.010Z,94572.00
2023-05-10T04:15:12.076Z,94572.00
2023-05-10T04:16:12.079Z,94574.00
2023-05-10T04:17:12.184Z,94572.00
2023-05-10T04:18:12.163Z,94572.00
2023-05-10T04:19:12.198Z,94572.00
2023-05-10T04:20:12.215Z,94574.00
2023-05-10T04:21:12.215Z,94574.00
2023-05-10T04:22:12.263Z,94574.00
2023-05-10T04:23:12.287Z,94574.00
2023-05-10T04:24:13.472Z,94574.00
2023-05-10T04:25:12.357Z,94576.00
2023-05-10T04:26:12.377Z,94578.00
2023-05-10T04:27:12.386Z,94578.00
2023-05-10T04:28:12.468Z,94578.00
2023-05-10T04:29:12.479Z,94578.00
2023-05-10T04:30:12.535Z,94580.00
2023-05-10T04:31:12.669Z,94578.00
2023-05-10T04:32:12.533Z,94576.00
2023-05-10T04:33:12.594Z,94578.00
2023-05-10T04:34:12.641Z,94576.00
2023-05-10T04:35:12.639Z,94576.00
2023-05-10T04:36:12.671Z,94576.00
2023-05-10T04:37:12.694Z,94576.00
2023-05-10T04:38:12.767Z,94576.00
2023-05-10T04:39:12.803Z,94578.00
2023-05-10T04:40:12.851Z,94578.00
2023-05-10T04:41:12.847Z,94578.00
2023-05-10T04:42:12.926Z,94578.00
2023-05-10T04:43:12.918Z,94578.00
2023-05-10T04:44:12.967Z,94582.00
2023-05-10T04:45:12.993Z,94580.00
2023-05-10T04:46:13.069Z,94582.00
2023-05-10T04:47:13.074Z,94582.00
2023-05-10T04:48:13.116Z,94582.00
2023-05-10T04:49:13.160Z,94586.00
2023-05-10T04:50:13.167Z,94584.00
2023-05-10T04:51:13.218Z,94584.00
2023-05-10T04:52:13.268Z,94584.00
2023-05-10T04:53:15.268Z,94584.00
2023-05-10T04:54:13.459Z,94586.00
2023-05-10T04:55:13.480Z,94586.00
2023-05-10T04:56:13.603Z,94586.00
2023-05-10T04:57:13.626Z,94586.00
2023-05-10T04:58:13.667Z,94588.00
2023-05-10T04:59:13.717Z,94586.00
2023-05-10T05:01:40.346Z,94588.00
2023-05-10T05:02:32.742Z,94588.00
2023-05-10T05:03:32.722Z,94590.00
2023-05-10T05:04:32.632Z,94588.00
2023-05-10T05:05:32.606Z,94592.00
2023-05-10T05:06:32.605Z,94594.00
2023-05-10T05:07:32.606Z,94594.00
2023-05-10T05:08:32.584Z,94597.00
2023-05-10T05:09:32.553Z,94597.00
2023-05-10T05:10:32.568Z,94601.00
2023-05-10T05:11:32.572Z,94603.00
2023-05-10T05:12:32.584Z,94599.00
2023-05-10T05:13:32.586Z,94603.00
2023-05-10T05:14:32.652Z,94603.00
2023-05-10T05:15:32.660Z,94605.00
2023-05-10T05:16:32.685Z,94607.00
2023-05-10T05:17:32.683Z,94605.00
2023-05-10T05:18:32.678Z,94607.00
2023-05-10T05:19:32.648Z,94607.00
2023-05-10T05:20:32.679Z,94609.00
2023-05-10T05:21:32.742Z,94609.00
2023-05-10T05:22:32.744Z,94609.00
2023-05-10T05:23:32.763Z,94611.00
2023-05-10T05:24:32.769Z,94611.00
2023-05-10T05:25:32.796Z,94613.00
2023-05-10T05:26:32.776Z,94613.00
2023-05-10T05:27:32.787Z,94613.00
2023-05-10T05:28:32.784Z,94617.00
2023-05-10T05:29:32.753Z,94615.00
2023-05-10T05:30:32.819Z,94617.00
2023-05-10T05:31:32.845Z,94617.00
2023-05-10T05:32:32.872Z,94617.00
2023-05-10T05:33:32.856Z,94619.00
2023-05-10T05:34:32.839Z,94619.00
2023-05-10T05:35:32.801Z,94617.00
2023-05-10T05:36:32.808Z,94621.00
2023-05-10T05:37:32.860Z,94617.00
2023-05-10T05:38:33.364Z,94619.00
2023-05-10T05:39:32.878Z,94621.00
2023-05-10T05:40:32.927Z,94619.00
2023-05-10T05:41:32.988Z,94621.00
2023-05-10T05:42:33.057Z,94619.00
2023-05-10T05:43:33.468Z,94619.00
2023-05-10T05:44:33.128Z,94619.00
2023-05-10T05:45:33.151Z,94619.00
2023-05-10T05:46:40.919Z,94621.00
2023-05-10T05:47:33.250Z,94621.00
2023-05-10T05:48:33.449Z,94621.00
2023-05-10T05:49:33.182Z,94623.00
2023-05-10T05:50:33.194Z,94623.00
2023-05-10T05:51:33.177Z,94627.00
2023-05-10T05:52:33.185Z,94625.00
2023-05-10T05:53:33.126Z,94625.00
2023-05-10T05:54:33.388Z,94621.00
2023-05-10T05:55:33.116Z,94625.00
2023-05-10T05:56:33.121Z,94627.00
2023-05-10T05:57:33.316Z,94627.00
2023-05-10T05:58:33.429Z,94625.00
2023-05-10T05:59:33.407Z,94623.00
2023-05-10T06:00:33.118Z,94625.00
2023-05-10T06:01:33.150Z,94625.00
2023-05-10T06:02:33.187Z,94627.00
2023-05-10T06:03:33.162Z,94627.00
2023-05-10T06:04:33.469Z,94623.00
2023-05-10T06:05:33.118Z,94625.00
2023-05-10T06:06:33.157Z,94623.00
2023-05-10T06:07:33.241Z,94623.00
2023-05-10T06:08:33.205Z,94627.00
2023-05-10T06:09:33.206Z,94627.00
2023-05-10T06:10:33.194Z,94625.00
2023-05-10T06:11:33.275Z,94627.00
2023-05-10T06:12:33.286Z,94627.00
2023-05-10T06:13:33.712Z,94637.00
2023-05-10T06:14:33.884Z,94635.00
2023-05-10T06:15:33.462Z,94635.00
2023-05-10T06:16:33.558Z,94637.00
2023-05-10T06:17:33.650Z,94637.00
2023-05-10T06:18:33.648Z,94641.00
2023-05-10T06:19:34.409Z,94643.00
2023-05-10T06:20:33.766Z,94647.00
2023-05-10T06:21:33.839Z,94645.00
2023-05-10T06:22:33.872Z,94647.00
2023-05-10T06:23:33.968Z,94649.00
2023-05-10T06:24:34.017Z,94649.00
2023-05-10T06:25:34.026Z,94649.00
2023-05-10T06:26:34.148Z,94650.00
2023-05-10T06:27:34.297Z,94650.00
2023-05-10T06:28:34.238Z,94650.00
2023-05-10T06:29:34.340Z,94649.00
2023-05-10T06:30:34.377Z,94650.00
2023-05-10T06:31:34.434Z,94652.00
2023-05-10T06:32:34.509Z,94652.00
2023-05-10T06:33:34.569Z,94650.00
2023-05-10T06:34:34.628Z,94652.00
2023-05-10T06:35:34.628Z,94652.00
2023-05-10T06:36:34.645Z,94652.00
2023-05-10T06:37:34.640Z,94652.00
2023-05-10T06:38:34.722Z,94652.00
2023-05-10T06:39:34.834Z,94647.00
2023-05-10T06:40:34.875Z,94650.00
2023-05-10T06:41:34.889Z,94649.00
2023-05-10T06:42:34.978Z,94656.00
2023-05-10T06:43:34.979Z,94656.00
2023-05-10T06:44:35.387Z,94658.00
2023-05-10T06:45:35.022Z,94658.00
2023-05-10T06:47:54.045Z,94656.00
2023-05-10T06:48:53.981Z,94654.00
2023-05-10T06:49:53.942Z,94654.00
2023-05-10T06:50:53.952Z,94656.00
2023-05-10T06:51:53.902Z,94652.00
2023-05-10T06:52:53.922Z,94650.00
2023-05-10T06:53:53.904Z,94652.00
2023-05-10T06:54:53.911Z,94654.00
2023-05-10T06:55:53.861Z,94654.00
2023-05-10T06:56:53.894Z,94652.00
2023-05-10T06:57:53.890Z,94652.00
2023-05-10T06:58:53.902Z,94650.00
2023-05-10T06:59:53.844Z,94652.00
2023-05-10T07:00:53.981Z,94652.00
2023-05-10T07:01:53.889Z,94652.00
2023-05-10T07:02:53.874Z,94654.00
2023-05-10T07:03:53.826Z,94654.00
2023-05-10T07:04:53.881Z,94654.00
2023-05-10T07:05:53.805Z,94652.00
2023-05-10T07:06:53.799Z,94654.00
2023-05-10T07:07:53.849Z,94654.00
2023-05-10T07:08:53.803Z,94652.00
2023-05-10T07:09:54.171Z,94656.00
2023-05-10T07:10:53.784Z,94654.00
2023-05-10T07:11:53.753Z,94654.00
2023-05-10T07:12:53.851Z,94658.00
2023-05-10T07:13:53.729Z,94656.00
2023-05-10T07:14:53.769Z,94658.00
2023-05-10T07:15:53.789Z,94654.00
2023-05-10T07:16:53.751Z,94656.00
2023-05-10T07:17:53.813Z,94654.00
2023-05-10T07:18:53.726Z,94654.00
2023-05-10T07:19:53.735Z,94654.00
2023-05-10T07:20:53.799Z,94654.00
2023-05-10T07:21:53.681Z,94654.00
2023-05-10T07:22:53.704Z,94656.00
2023-05-10T07:23:53.696Z,94656.00
2023-05-10T07:24:53.712Z,94656.00
2023-05-10T07:25:53.713Z,94656.00
2023-05-10T07:26:53.680Z,94656.00
2023-05-10T07:27:53.628Z,94656.00
2023-05-10T07:28:53.655Z,94660.00
2023-05-10T07:29:53.705Z,94658.00
2023-05-10T07:30:53.665Z,94658.00
2023-05-10T07:31:54.481Z,94658.00
2023-05-10T07:32:53.808Z,94660.00
2023-05-10T07:33:53.820Z,94658.00
2023-05-10T07:34:53.874Z,94654.00
2023-05-10T07:35:53.893Z,94656.00
2023-05-10T07:36:53.965Z,94654.00
2023-05-10T07:37:54.000Z,94656.00
2023-05-10T07:38:54.034Z,94658.00
2023-05-10T07:39:54.121Z,94658.00
2023-05-10T07:40:54.117Z,94656.00
2023-05-10T07:41:54.155Z,94658.00
2023-05-10T07:42:54.208Z,94658.00
2023-05-10T07:43:54.249Z,94656.00
2023-05-10T07:44:54.339Z,94658.00
2023-05-10T07:45:56.105Z,94660.00
2023-05-10T07:46:54.362Z,94658.00
2023-05-10T07:47:54.464Z,94658.00
2023-05-10T07:48:54.484Z,94664.00
2023-05-10T07:49:54.557Z,94664.00
2023-05-10T07:50:54.570Z,94668.00
2023-05-10T07:51:54.600Z,94666.00
2023-05-10T07:52:54.599Z,94668.00
2023-05-10T07:53:54.669Z,94668.00
2023-05-10T07:54:54.721Z,94668.00
2023-05-10T07:55:54.801Z,94670.00
2023-05-10T07:56:54.808Z,94670.00
2023-05-10T07:57:54.832Z,94670.00
2023-05-10T07:58:54.882Z,94670.00
2023-05-10T07:59:54.955Z,94668.00
2023-05-10T08:00:54.998Z,94672.00
2023-05-10T08:01:55.077Z,94670.00
2023-05-10T08:02:55.129Z,94672.00
2023-05-10T08:03:55.273Z,94668.00
2023-05-10T08:04:55.195Z,94670.00
2023-05-10T08:05:55.223Z,94668.00
2023-05-10T08:06:55.289Z,94668.00
2023-05-10T08:07:55.300Z,94668.00
2023-05-10T08:08:55.338Z,94674.00
2023-05-10T08:09:55.450Z,94670.00
2023-05-10T08:10:55.635Z,94672.00
2023-05-10T08:11:55.468Z,94672.00
2023-05-10T08:12:55.567Z,94672.00
2023-05-10T08:13:55.575Z,94678.00
2023-05-10T08:14:55.600Z,94676.00
2023-05-10T08:15:56.528Z,94676.00
2023-05-10T08:16:55.723Z,94680.00
2023-05-10T08:17:55.782Z,94680.00
2023-05-10T08:18:55.848Z,94680.00
2023-05-10T08:19:55.870Z,94680.00
2023-05-10T08:20:55.927Z,94680.00
2023-05-10T08:21:55.924Z,94682.00
2023-05-10T08:22:55.943Z,94682.00
2023-05-10T08:23:56.014Z,94678.00
2023-05-10T08:24:56.054Z,94682.00
2023-05-10T08:25:56.160Z,94680.00
2023-05-10T08:26:56.154Z,94680.00
2023-05-10T08:27:56.289Z,94680.00
2023-05-10T08:28:56.293Z,94680.00
2023-05-10T08:29:56.320Z,94680.00
2023-05-10T08:30:56.715Z,94678.00
2023-05-10T08:31:56.311Z,94678.00
2023-05-10T08:32:56.315Z,94678.00
2023-05-10T08:33:56.290Z,94680.00
2023-05-10T08:34:56.302Z,94684.00
2023-05-10T08:35:56.664Z,94684.00
2023-05-10T08:36:56.323Z,94686.00
2023-05-10T08:37:56.321Z,94686.00
2023-05-10T08:38:56.309Z,94688.00
2023-05-10T08:39:56.323Z,94688.00
2023-05-10T08:40:56.346Z,94690.00
2023-05-10T08:41:56.352Z,94690.00
2023-05-10T08:42:56.348Z,94692.00
2023-05-10T08:43:56.367Z,94692.00
2023-05-10T08:44:56.315Z,94694.00
2023-05-10T08:45:56.685Z,94692.00
2023-05-10T08:46:56.325Z,94692.00
2023-05-10T08:47:56.328Z,94694.00
2023-05-10T08:48:56.318Z,94694.00
2023-05-10T08:49:56.299Z,94694.00
2023-05-10T08:50:56.713Z,94694.00
2023-05-10T08:51:56.381Z,94696.00
2023-05-10T08:52:56.263Z,94696.00
2023-05-10T08:53:56.274Z,94696.00
2023-05-10T08:54:56.321Z,94697.00
2023-05-10T08:55:56.387Z,94699.00
2023-05-10T08:56:56.493Z,94701.00
2023-05-10T08:57:56.504Z,94703.00
2023-05-10T08:58:56.567Z,94701.00
2023-05-10T08:59:56.608Z,94705.00
2023-05-10T09:00:57.210Z,94707.00
2023-05-10T09:01:56.707Z,94707.00
2023-05-10T09:02:56.779Z,94709.00
2023-05-10T09:03:56.854Z,94709.00
2023-05-10T09:04:56.970Z,94707.00
2023-05-10T09:05:57.176Z,94707.00
2023-05-10T09:06:56.952Z,94709.00
2023-05-10T09:07:56.958Z,94709.00
2023-05-10T09:08:57.036Z,94711.00
2023-05-10T09:09:57.094Z,94711.00
2023-05-10T09:10:57.164Z,94711.00
2023-05-10T09:11:57.204Z,94709.00
2023-05-10T09:12:59.214Z,94711.00
2023-05-10T09:13:57.302Z,94711.00
2023-05-10T09:14:57.325Z,94711.00
2023-05-10T09:16:00.276Z,94709.00
2023-05-10T09:16:57.438Z,94711.00
2023-05-10T09:17:57.406Z,94711.00
2023-05-10T09:18:57.425Z,94713.00
2023-05-10T09:19:57.322Z,94713.00
2023-05-10T09:20:57.356Z,94713.00
2023-05-10T09:21:57.346Z,94715.00
2023-05-10T09:22:57.331Z,94715.00
2023-05-10T09:23:57.299Z,94717.00
2023-05-10T09:24:57.306Z,94717.00
2023-05-10T09:25:57.719Z,94717.00
2023-05-10T09:26:57.257Z,94715.00
2023-05-10T09:27:57.267Z,94719.00
2023-05-10T09:28:57.305Z,94719.00
2023-05-10T09:29:58.387Z,94719.00
2023-05-10T09:30:57.719Z,94719.00
2023-05-10T09:31:57.457Z,94719.00
2023-05-10T09:32:57.512Z,94721.00
2023-05-10T09:33:57.526Z,94719.00
2023-05-10T09:34:57.569Z,94717.00
2023-05-10T09:35:57.714Z,94721.00
2023-05-10T09:36:57.651Z,94719.00
2023-05-10T09:37:58.658Z,94719.00
2023-05-10T09:38:57.715Z,94719.00
2023-05-10T09:39:57.773Z,94717.00
2023-05-10T09:40:58.234Z,94717.00
2023-05-10T09:41:57.808Z,94713.00
2023-05-10T09:42:58.308Z,94715.00
2023-05-10T09:43:57.843Z,94711.00
2023-05-10T09:44:57.864Z,94713.00
2023-05-10T09:45:58.266Z,94709.00
2023-05-10T09:46:57.955Z,94709.00
2023-05-10T09:47:58.054Z,94713.00
2023-05-10T09:48:58.037Z,94711.00
2023-05-10T09:49:58.065Z,94713.00
2023-05-10T09:50:58.718Z,94715.00
2023-05-10T09:51:58.152Z,94713.00
2023-05-10T09:52:58.203Z,94715.00
2023-05-10T09:53:58.279Z,94717.00
2023-05-10T09:54:58.268Z,94715.00
2023-05-10T09:55:58.331Z,94713.00
2023-05-10T09:56:58.333Z,94711.00
2023-05-10T09:57:58.360Z,94713.00
2023-05-10T09:58:58.432Z,94713.00
2023-05-10T09:59:58.480Z,94713.00
2023-05-10T10:00:58.692Z,94715.00
2023-05-10T10:01:58.596Z,94715.00
2023-05-10T10:02:58.667Z,94713.00
2023-05-10T10:03:58.646Z,94715.00
2023-05-10T10:04:58.694Z,94715.00
2023-05-10T10:05:58.713Z,94713.00
2023-05-10T10:06:58.730Z,94717.00
2023-05-10T10:07:58.809Z,94717.00
2023-05-10T10:08:58.839Z,94715.00
2023-05-10T10:09:58.901Z,94717.00
2023-05-10T10:10:59.217Z,94715.00
2023-05-10T10:11:58.977Z,94715.00
2023-05-10T10:12:58.974Z,94715.00
2023-05-10T10:13:58.999Z,94715.00
2023-05-10T10:14:59.053Z,94715.00
2023-05-10T10:15:59.081Z,94715.00
2023-05-10T10:17:08.101Z,94717.00
2023-05-10T10:18:00.198Z,94717.00
2023-05-10T10:18:59.198Z,94717.00
2023-05-10T10:19:59.117Z,94721.00
2023-05-10T10:20:59.117Z,94719.00
2023-05-10T10:21:59.196Z,94719.00
2023-05-10T10:22:59.134Z,94719.00
2023-05-10T10:23:59.040Z,94719.00
2023-05-10T10:24:59.068Z,94717.00
2023-05-10T10:25:59.058Z,94721.00
2023-05-10T10:26:59.230Z,94719.00
2023-05-10T10:27:59.034Z,94721.00
2023-05-10T10:28:59.055Z,94723.00
2023-05-10T10:29:59.053Z,94721.00
2023-05-10T10:30:59.011Z,94723.00
2023-05-10T10:31:59.230Z,94723.00
2023-05-10T10:32:59.062Z,94723.00
2023-05-10T10:33:59.062Z,94721.00
2023-05-10T10:34:58.997Z,94719.00
2023-05-10T10:35:59.024Z,94717.00
2023-05-10T10:36:59.196Z,94715.00
2023-05-10T10:37:59.003Z,94713.00
2023-05-10T10:38:59.306Z,94719.00
2023-05-10T10:39:58.932Z,94719.00
2023-05-10T10:40:58.980Z,94719.00
2023-05-10T10:41:59.241Z,94717.00
2023-05-10T10:42:58.994Z,94719.00
2023-05-10T10:43:58.989Z,94715.00
2023-05-10T10:44:59.447Z,94715.00
2023-05-10T10:45:59.077Z,94717.00
2023-05-10T10:46:59.236Z,94715.00
2023-05-10T10:47:59.162Z,94715.00
2023-05-10T10:48:59.184Z,94713.00
2023-05-10T10:49:59.242Z,94717.00
2023-05-10T10:50:59.252Z,94717.00
2023-05-10T10:51:59.415Z,94717.00
2023-05-10T10:52:59.367Z,94715.00
2023-05-10T10:53:59.387Z,94717.00
2023-05-10T10:54:59.313Z,94721.00
2023-05-10T10:55:59.447Z,94719.00
2023-05-10T10:56:59.746Z,94719.00
2023-05-10T10:57:59.453Z,94717.00
2023-05-10T10:58:59.494Z,94715.00
2023-05-10T10:59:59.583Z,94713.00
2023-05-10T11:00:59.566Z,94715.00
2023-05-10T11:01:59.605Z,94713.00
2023-05-10T11:02:59.632Z,94713.00
2023-05-10T11:03:59.746Z,94713.00
2023-05-10T11:04:59.722Z,94713.00
2023-05-10T11:05:59.720Z,94715.00
2023-05-10T11:06:59.718Z,94715.00
2023-05-10T11:07:59.743Z,94713.00
2023-05-10T11:08:59.731Z,94713.00
2023-05-10T11:09:59.739Z,94711.00
2023-05-10T11:10:59.774Z,94707.00
2023-05-10T11:11:59.759Z,94711.00
2023-05-10T11:12:59.751Z,94709.00
2023-05-10T11:14:00.145Z,94709.00
2023-05-10T11:14:59.805Z,94709.00
2023-05-10T11:15:59.783Z,94707.00
2023-05-10T11:16:59.843Z,94707.00
2023-05-10T11:17:59.965Z,94705.00
2023-05-10T11:19:00.058Z,94705.00
2023-05-10T11:19:59.994Z,94709.00
2023-05-10T11:21:00.030Z,94705.00
2023-05-10T11:22:00.387Z,94705.00
2023-05-10T11:23:00.621Z,94703.00
2023-05-10T11:24:00.055Z,94705.00
2023-05-10T11:25:00.088Z,94705.00
2023-05-10T11:26:00.137Z,94707.00
2023-05-10T11:27:00.109Z,94703.00
2023-05-10T11:28:00.312Z,94705.00
2023-05-10T11:29:00.233Z,94703.00
2023-05-10T11:30:00.277Z,94711.00
2023-05-10T11:31:00.348Z,94707.00
2023-05-10T11:32:00.290Z,94707.00
2023-05-10T11:33:00.813Z,94709.00
2023-05-10T11:34:00.328Z,94707.00
2023-05-10T11:35:00.331Z,94705.00
2023-05-10T11:36:00.415Z,94709.00
2023-05-10T11:37:00.437Z,94707.00
2023-05-10T11:38:00.734Z,94703.00
2023-05-10T11:39:00.564Z,94705.00
2023-05-10T11:40:00.883Z,94703.00
2023-05-10T11:41:00.663Z,94707.00
2023-05-10T11:42:00.702Z,94703.00
2023-05-10T11:43:00.776Z,94703.00
2023-05-10T11:44:00.754Z,94703.00
2023-05-10T11:45:00.807Z,94705.00
2023-05-10T11:46:00.878Z,94707.00
2023-05-10T11:47:00.915Z,94707.00